createdAt,value
2019-03-03T00:01:34.436Z,8.10
2019-03-03T00:04:03.709Z,8.10
2019-03-03T00:06:32.866Z,8.10
2019-03-03T00:09:02.115Z,8.00
2019-03-03T00:11:31.274Z,8.10
2019-03-03T00:14:00.476Z,8.10
2019-03-03T00:16:29.726Z,8.20
2019-03-03T00:18:58.942Z,8.10
2019-03-03T00:21:28.181Z,8.10
2019-03-03T00:23:57.434Z,8.10
2019-03-03T00:26:26.664Z,8.10
2019-03-03T00:28:55.914Z,8.10
2019-03-03T00:31:36.906Z,8.10
2019-03-03T00:34:06.248Z,8.10
2019-03-03T00:37:12.860Z,8.10
2019-03-03T00:39:59.878Z,8.10
2019-03-03T00:42:42.679Z,8.10
2019-03-03T00:45:40.905Z,8.20
2019-03-03T00:48:24.520Z,8.20
2019-03-03T00:51:12.678Z,8.20
2019-03-03T00:53:49.014Z,8.20
2019-03-03T00:56:36.059Z,8.20
2019-03-03T00:59:14.868Z,8.20
2019-03-03T01:01:54.791Z,8.20
2019-03-03T01:04:41.728Z,8.20
2019-03-03T01:07:29.531Z,8.20
2019-03-03T01:10:06.119Z,8.20
2019-03-03T01:17:08.484Z,8.20
2019-03-03T01:19:45.497Z,8.20
2019-03-03T01:22:24.609Z,8.30
2019-03-03T01:24:55.581Z,8.20
2019-03-03T01:27:25.808Z,8.20
2019-03-03T01:29:54.973Z,8.30
2019-03-03T01:32:24.178Z,8.20
2019-03-03T01:34:53.376Z,8.30
2019-03-03T01:37:22.532Z,8.20
2019-03-03T01:39:51.689Z,8.20
2019-03-03T01:42:20.805Z,8.10
2019-03-03T01:44:50.038Z,8.20
2019-03-03T01:47:19.261Z,8.20
2019-03-03T01:49:48.509Z,8.10
2019-03-03T01:52:17.637Z,8.10
2019-03-03T01:55:06.138Z,8.10
2019-03-03T01:57:35.392Z,8.10
2019-03-03T02:00:09.007Z,8.10
2019-03-03T02:02:38.268Z,8.10
2019-03-03T02:05:07.654Z,8.10
2019-03-03T02:07:36.914Z,8.10
2019-03-03T02:10:06.491Z,8.10
2019-03-03T02:12:35.743Z,8.10
2019-03-03T02:15:05.983Z,8.00
2019-03-03T02:17:35.326Z,8.00
2019-03-03T02:20:04.834Z,8.00
2019-03-03T02:22:34.105Z,7.90
2019-03-03T02:25:03.410Z,8.00
2019-03-03T02:27:32.733Z,8.00
2019-03-03T02:30:02.019Z,8.00
2019-03-03T02:32:31.505Z,8.00
2019-03-03T02:35:00.803Z,8.00
2019-03-03T02:37:30.082Z,8.00
2019-03-03T02:39:59.351Z,8.00
2019-03-03T02:42:28.632Z,8.00
2019-03-03T02:44:57.927Z,7.90
2019-03-03T02:47:27.192Z,7.90
2019-03-03T02:49:56.487Z,7.90
2019-03-03T02:52:25.732Z,7.90
2019-03-03T02:54:55.038Z,7.90
2019-03-03T02:57:24.312Z,7.90
2019-03-03T02:59:53.488Z,7.90
2019-03-03T03:02:50.602Z,7.90
2019-03-03T03:05:31.582Z,7.90
2019-03-03T03:08:06.935Z,7.90
2019-03-03T03:10:46.921Z,7.90
2019-03-03T03:13:35.803Z,7.90
2019-03-03T03:16:13.736Z,8.00
2019-03-03T03:18:54.020Z,7.90
2019-03-03T03:21:41.137Z,7.90
2019-03-03T03:24:20.435Z,7.90
2019-03-03T03:26:55.703Z,7.90
2019-03-03T03:29:30.777Z,7.80
2019-03-03T03:32:18.062Z,7.70
2019-03-03T03:34:56.778Z,7.70
2019-03-03T03:37:40.322Z,7.70
2019-03-03T03:40:34.937Z,7.70
2019-03-03T03:43:16.770Z,7.70
2019-03-03T03:46:00.855Z,7.70
2019-03-03T03:48:57.921Z,7.60
2019-03-03T03:51:44.850Z,7.60
2019-03-03T03:54:34.875Z,7.50
2019-03-03T03:57:23.266Z,7.50
2019-03-03T04:00:07.303Z,7.50
2019-03-03T04:02:54.114Z,7.40
2019-03-03T04:05:45.338Z,7.40
2019-03-03T04:08:20.687Z,7.30
2019-03-03T04:11:08.036Z,7.30
2019-03-03T04:13:48.424Z,7.30
2019-03-03T04:16:51.671Z,7.30
2019-03-03T04:19:25.378Z,7.20
2019-03-03T04:22:23.506Z,7.20
2019-03-03T04:25:17.780Z,7.20
2019-03-03T04:28:11.917Z,7.20
2019-03-03T04:31:05.971Z,7.40
2019-03-03T04:33:50.014Z,7.50
2019-03-03T04:36:44.437Z,7.40
2019-03-03T04:39:38.547Z,7.40
2019-03-03T04:42:32.661Z,7.40
2019-03-03T04:45:20.872Z,7.40
2019-03-03T04:48:01.638Z,7.30
2019-03-03T04:51:01.860Z,7.30
2019-03-03T04:53:50.067Z,7.30
2019-03-03T04:56:34.715Z,7.40
2019-03-03T04:59:25.703Z,7.40
2019-03-03T05:02:13.959Z,7.30
2019-03-03T05:04:58.426Z,7.30
2019-03-03T05:07:47.654Z,7.30
2019-03-03T05:10:38.660Z,7.40
2019-03-03T05:13:42.639Z,7.40
2019-03-03T05:16:45.726Z,7.30
2019-03-03T05:19:34.114Z,7.30
2019-03-03T05:22:03.414Z,7.20
2019-03-03T05:24:34.546Z,7.30
2019-03-03T05:27:03.710Z,7.30
2019-03-03T05:29:33.018Z,7.30
2019-03-03T05:32:02.294Z,7.30
2019-03-03T05:34:31.617Z,7.30
2019-03-03T05:37:00.875Z,7.30
2019-03-03T05:39:30.171Z,7.30
2019-03-03T05:41:59.441Z,7.40
2019-03-03T05:44:28.739Z,7.40
2019-03-03T05:46:58.012Z,7.40
2019-03-03T05:49:27.325Z,7.50
2019-03-03T05:51:56.575Z,7.40
2019-03-03T05:54:25.924Z,7.50
2019-03-03T05:56:55.283Z,7.50
2019-03-03T05:59:24.556Z,7.50
2019-03-03T06:01:53.815Z,7.50
2019-03-03T06:04:23.112Z,7.60
2019-03-03T06:06:52.377Z,7.60
2019-03-03T06:09:21.652Z,7.70
2019-03-03T06:11:50.919Z,7.60
2019-03-03T06:14:20.178Z,7.70
2019-03-03T06:16:49.499Z,7.70
2019-03-03T06:19:18.775Z,7.60
2019-03-03T06:21:48.098Z,7.70
2019-03-03T06:24:17.409Z,7.70
2019-03-03T06:26:46.686Z,7.70
2019-03-03T06:29:15.982Z,7.70
2019-03-03T06:31:45.274Z,7.60
2019-03-03T06:34:14.549Z,7.60
2019-03-03T06:36:43.875Z,7.60
2019-03-03T06:39:13.196Z,7.60
2019-03-03T06:41:42.504Z,7.60
2019-03-03T06:44:11.767Z,7.60
2019-03-03T06:46:41.039Z,7.60
2019-03-03T06:49:10.327Z,7.60
2019-03-03T06:51:39.590Z,7.80
2019-03-03T06:54:09.180Z,7.80
2019-03-03T06:56:38.466Z,7.90
2019-03-03T06:59:08.004Z,7.90
2019-03-03T07:01:37.304Z,8.00
2019-03-03T07:04:06.577Z,8.00
2019-03-03T07:06:35.977Z,8.10
2019-03-03T07:09:06.229Z,8.10
2019-03-03T07:11:35.514Z,8.20
2019-03-03T07:14:04.760Z,8.20
2019-03-03T07:16:34.063Z,8.30
2019-03-03T07:19:03.429Z,8.30
2019-03-03T07:21:32.713Z,8.40
2019-03-03T07:24:01.968Z,8.40
2019-03-03T07:26:31.240Z,8.50
2019-03-03T07:29:00.578Z,8.60
2019-03-03T07:31:29.932Z,8.60
2019-03-03T07:34:01.700Z,8.60
2019-03-03T07:36:32.173Z,8.60
2019-03-03T07:39:01.506Z,8.80
2019-03-03T07:41:30.816Z,8.80
2019-03-03T07:44:00.047Z,8.80
2019-03-03T07:46:29.399Z,8.90
2019-03-03T07:48:58.672Z,8.90
2019-03-03T07:51:27.968Z,8.80
2019-03-03T07:53:57.284Z,8.80
2019-03-03T07:56:26.646Z,8.90
2019-03-03T07:58:55.976Z,8.90
2019-03-03T08:01:25.415Z,8.80
2019-03-03T08:03:54.711Z,8.90
2019-03-03T08:06:23.977Z,8.80
2019-03-03T08:08:53.269Z,8.90
2019-03-03T08:11:23.204Z,8.90
2019-03-03T08:13:56.124Z,8.90
2019-03-03T08:16:25.448Z,8.90
2019-03-03T08:18:55.996Z,8.90
2019-03-03T08:21:25.405Z,8.90
2019-03-03T08:23:54.886Z,8.90
2019-03-03T08:26:36.627Z,8.90
2019-03-03T08:29:05.887Z,9.00
2019-03-03T08:31:41.553Z,9.00
2019-03-03T08:34:15.016Z,9.00
2019-03-03T08:36:49.800Z,9.10
2019-03-03T08:39:19.135Z,9.20
2019-03-03T08:41:53.197Z,9.10
2019-03-03T08:44:33.679Z,9.20
2019-03-03T08:47:20.516Z,9.20
2019-03-03T08:50:15.463Z,9.30
2019-03-03T08:53:13.073Z,9.40
2019-03-03T08:56:01.323Z,9.50
2019-03-03T08:58:58.691Z,9.60
2019-03-03T09:01:38.723Z,9.70
2019-03-03T09:04:14.239Z,9.70
2019-03-03T09:06:50.077Z,9.80
2019-03-03T09:09:28.420Z,9.80
2019-03-03T09:12:10.951Z,9.80
2019-03-03T09:15:08.488Z,9.80
2019-03-03T09:17:54.571Z,9.90
2019-03-03T09:20:42.822Z,10.00
2019-03-03T09:23:46.125Z,10.00
2019-03-03T09:26:33.198Z,10.00
2019-03-03T09:29:21.477Z,10.10
2019-03-03T09:32:12.563Z,10.10
2019-03-03T09:34:53.686Z,10.20
2019-03-03T09:37:31.968Z,10.20
2019-03-03T09:40:20.299Z,10.10
2019-03-03T09:43:40.492Z,10.10
2019-03-03T09:46:27.063Z,10.00
2019-03-03T09:49:17.185Z,10.10
2019-03-03T09:52:19.191Z,10.10
2019-03-03T09:54:56.547Z,10.10
2019-03-03T09:57:43.030Z,10.20
2019-03-03T10:00:30.971Z,10.20
2019-03-03T10:03:17.967Z,10.20
2019-03-03T10:06:12.512Z,10.20
2019-03-03T10:09:16.027Z,10.00
2019-03-03T10:12:02.819Z,10.00
2019-03-03T10:14:54.113Z,10.00
2019-03-03T10:17:41.027Z,10.10
2019-03-03T10:20:26.943Z,10.10
2019-03-03T10:23:18.989Z,10.10
2019-03-03T10:26:06.189Z,10.10
2019-03-03T10:29:12.978Z,10.00
2019-03-03T10:32:07.442Z,10.10
2019-03-03T10:35:05.009Z,10.10
2019-03-03T10:37:43.138Z,10.10
2019-03-03T10:40:31.608Z,10.20
2019-03-03T10:43:31.861Z,10.10
2019-03-03T10:46:26.176Z,10.10
2019-03-03T10:49:16.524Z,10.20
2019-03-03T10:52:07.653Z,10.30
2019-03-03T10:54:48.921Z,10.20
2019-03-03T10:57:36.269Z,10.10
2019-03-03T11:00:26.714Z,10.20
2019-03-03T11:03:20.963Z,10.20
2019-03-03T11:06:08.100Z,10.10
2019-03-03T11:08:47.281Z,10.10
2019-03-03T11:11:54.079Z,10.20
2019-03-03T11:14:33.498Z,10.20
2019-03-03T11:17:20.084Z,10.20
2019-03-03T11:20:07.314Z,10.20
2019-03-03T11:23:00.273Z,10.20
2019-03-03T11:25:48.835Z,10.10
2019-03-03T11:28:40.153Z,10.20
2019-03-03T11:31:22.072Z,10.20
2019-03-03T11:34:08.938Z,10.30
2019-03-03T11:37:03.538Z,10.30
2019-03-03T11:39:48.736Z,10.40
2019-03-03T11:42:31.315Z,10.30
2019-03-03T11:45:22.421Z,10.30
2019-03-03T11:48:19.912Z,10.30
2019-03-03T11:51:11.875Z,10.20
2019-03-03T11:53:47.114Z,10.20
2019-03-03T11:56:34.338Z,10.30
2019-03-03T11:59:18.993Z,10.30
2019-03-03T12:02:11.933Z,10.40
2019-03-03T12:04:58.798Z,10.30
2019-03-03T12:07:47.489Z,10.30
2019-03-03T12:10:35.936Z,10.40
2019-03-03T12:13:23.524Z,10.50
2019-03-03T12:16:01.820Z,10.40
2019-03-03T12:18:49.186Z,10.50
2019-03-03T12:21:49.747Z,10.50
2019-03-03T12:24:38.082Z,10.60
2019-03-03T12:27:24.556Z,10.70
2019-03-03T12:30:06.725Z,10.80
2019-03-03T12:33:04.368Z,11.00
2019-03-03T12:35:43.267Z,11.20
2019-03-03T12:38:40.819Z,11.30
2019-03-03T12:41:35.151Z,11.50
2019-03-03T12:44:12.609Z,11.50
2019-03-03T12:46:55.947Z,11.60
2019-03-03T12:49:44.277Z,11.80
2019-03-03T12:52:31.375Z,11.80
2019-03-03T12:55:18.560Z,11.70
2019-03-03T12:58:12.751Z,11.60
2019-03-03T13:00:57.945Z,11.50
2019-03-03T13:03:37.123Z,11.60
2019-03-03T13:06:30.346Z,11.70
2019-03-03T13:09:18.416Z,11.70
2019-03-03T13:12:12.476Z,11.70
2019-03-03T13:15:00.733Z,11.60
2019-03-03T13:17:48.439Z,11.70
2019-03-03T13:20:25.971Z,11.70
2019-03-03T13:23:04.813Z,11.70
2019-03-03T13:26:02.383Z,11.60
2019-03-03T13:28:59.726Z,11.70
2019-03-03T13:31:39.255Z,11.80
2019-03-03T13:34:35.769Z,11.80
2019-03-03T13:37:39.380Z,11.80
2019-03-03T13:40:43.716Z,11.70
2019-03-03T13:43:26.248Z,11.60
2019-03-03T13:45:55.568Z,11.60
2019-03-03T13:48:24.868Z,11.50
2019-03-03T13:50:54.304Z,11.40
2019-03-03T13:53:23.680Z,11.50
2019-03-03T13:55:52.995Z,11.50
2019-03-03T13:58:22.414Z,11.40
2019-03-03T14:00:51.846Z,11.50
2019-03-03T14:03:21.153Z,11.60
2019-03-03T14:05:50.509Z,11.60
2019-03-03T14:08:19.853Z,11.70
2019-03-03T14:10:49.283Z,11.70
2019-03-03T14:13:18.622Z,11.70
2019-03-03T14:15:47.981Z,11.70
2019-03-03T14:18:17.354Z,11.60
2019-03-03T14:20:46.800Z,11.70
2019-03-03T14:23:16.135Z,11.70
2019-03-03T14:25:45.519Z,11.80
2019-03-03T14:28:14.869Z,11.80
2019-03-03T14:30:45.278Z,11.80
2019-03-03T14:33:14.711Z,11.90
2019-03-03T14:35:44.218Z,11.80
2019-03-03T14:38:16.239Z,11.80
2019-03-03T14:40:45.530Z,11.80
2019-03-03T14:43:14.851Z,11.70
2019-03-03T14:45:44.246Z,11.80
2019-03-03T14:48:13.746Z,11.80
2019-03-03T14:50:43.139Z,11.90
2019-03-03T14:53:13.683Z,11.90
2019-03-03T14:55:43.071Z,11.90
2019-03-03T14:58:14.151Z,12.00
2019-03-03T15:00:43.488Z,12.10
2019-03-03T15:03:12.844Z,12.00
2019-03-03T15:05:42.184Z,12.10
2019-03-03T15:08:11.637Z,12.00
2019-03-03T15:10:41.086Z,12.00
2019-03-03T15:13:11.516Z,12.00
2019-03-03T15:15:40.971Z,11.90
2019-03-03T15:18:10.535Z,11.80
2019-03-03T15:20:39.841Z,11.70
2019-03-03T15:23:09.205Z,11.80
2019-03-03T15:25:38.740Z,11.80
2019-03-03T15:28:08.054Z,11.80
2019-03-03T15:30:37.432Z,11.80
2019-03-03T15:33:06.812Z,11.70
2019-03-03T15:35:36.209Z,11.70
2019-03-03T15:38:05.547Z,11.80
2019-03-03T15:40:34.878Z,11.80
2019-03-03T15:43:04.229Z,11.80
2019-03-03T15:45:33.587Z,11.70
2019-03-03T15:48:09.263Z,11.70
2019-03-03T15:50:38.826Z,11.80
2019-03-03T15:53:08.400Z,11.70
2019-03-03T15:55:37.727Z,11.70
2019-03-03T15:58:07.147Z,11.70
2019-03-03T16:00:36.723Z,11.70
2019-03-03T16:03:06.469Z,11.70
2019-03-03T16:05:35.816Z,11.60
2019-03-03T16:08:05.385Z,11.60
2019-03-03T16:10:34.779Z,11.60
2019-03-03T16:13:04.203Z,11.60
2019-03-03T16:15:33.508Z,11.60
2019-03-03T16:18:02.891Z,11.60
2019-03-03T16:20:32.199Z,11.50
2019-03-03T16:23:01.492Z,11.50
2019-03-03T16:25:30.911Z,11.40
2019-03-03T16:28:00.270Z,11.40
2019-03-03T16:30:29.631Z,11.30
2019-03-03T16:32:59.019Z,11.30
2019-03-03T16:35:28.318Z,11.30
2019-03-03T16:37:57.635Z,11.30
2019-03-03T16:40:26.973Z,11.30
2019-03-03T16:42:56.299Z,11.20
2019-03-03T16:45:25.612Z,11.10
2019-03-03T16:47:54.976Z,11.20
2019-03-03T16:50:24.286Z,11.10
2019-03-03T16:52:53.679Z,11.10
2019-03-03T16:55:23.077Z,11.20
2019-03-03T16:57:52.451Z,11.10
2019-03-03T17:00:22.375Z,11.20
2019-03-03T17:02:51.764Z,11.10
2019-03-03T17:05:21.704Z,11.10
2019-03-03T17:07:51.321Z,11.10
2019-03-03T17:10:20.682Z,11.00
2019-03-03T17:12:50.092Z,11.10
2019-03-03T17:15:20.755Z,11.10
2019-03-03T17:17:50.245Z,11.00
2019-03-03T17:20:19.688Z,11.00
2019-03-03T17:22:49.144Z,10.90
2019-03-03T17:25:20.157Z,10.80
2019-03-03T17:27:49.524Z,10.80
2019-03-03T17:30:20.401Z,10.80
2019-03-03T17:32:49.897Z,10.90
2019-03-03T17:35:19.656Z,10.80
2019-03-03T17:37:49.367Z,10.70
2019-03-03T17:40:20.021Z,10.80
2019-03-03T17:42:49.767Z,10.80
2019-03-03T17:45:20.358Z,10.80
2019-03-03T17:47:50.215Z,10.80
2019-03-03T17:50:20.519Z,10.70
2019-03-03T17:52:49.957Z,10.70
2019-03-03T17:55:19.455Z,10.70
2019-03-03T17:57:49.073Z,10.60
2019-03-03T18:00:20.894Z,10.60
2019-03-03T18:02:50.487Z,10.60
2019-03-03T18:05:20.775Z,10.60
2019-03-03T18:07:50.622Z,10.60
2019-03-03T18:10:20.264Z,10.70
2019-03-03T18:12:49.714Z,10.80
2019-03-03T18:15:19.325Z,10.90
2019-03-03T18:17:50.434Z,10.90
2019-03-03T18:20:20.099Z,11.00
2019-03-03T18:22:49.830Z,11.00
2019-03-03T18:25:19.445Z,11.10
2019-03-03T18:27:49.102Z,11.10
2019-03-03T18:30:20.652Z,11.10
2019-03-03T18:32:50.229Z,11.00
2019-03-03T18:35:19.570Z,11.00
2019-03-03T18:37:49.110Z,10.80
2019-03-03T18:40:20.095Z,10.80
2019-03-03T18:42:49.729Z,10.80
2019-03-03T18:45:19.516Z,10.80
2019-03-03T18:47:49.965Z,10.70
2019-03-03T18:50:19.654Z,10.80
2019-03-03T18:52:49.225Z,10.70
2019-03-03T18:55:18.745Z,10.50
2019-03-03T18:57:48.403Z,10.40
2019-03-03T19:00:22.660Z,10.30
2019-03-03T19:02:52.645Z,10.30
2019-03-03T19:05:24.891Z,10.30
2019-03-03T19:07:54.785Z,10.30
2019-03-03T19:10:25.366Z,10.30
2019-03-03T19:12:54.877Z,10.40
2019-03-03T19:15:24.177Z,10.40
2019-03-03T19:17:53.521Z,10.50
2019-03-03T19:20:23.150Z,10.50
2019-03-03T19:22:52.551Z,10.60
2019-03-03T19:25:22.315Z,10.60
2019-03-03T19:27:51.679Z,10.60
2019-03-03T19:30:25.031Z,10.70
2019-03-03T19:33:19.133Z,10.70
2019-03-03T19:35:48.748Z,10.70
2019-03-03T19:38:18.143Z,10.70
2019-03-03T19:40:47.502Z,10.80
2019-03-03T19:43:16.848Z,10.90
2019-03-03T19:45:46.190Z,10.90
2019-03-03T19:48:15.553Z,10.90
2019-03-03T19:50:44.852Z,11.10
2019-03-03T19:53:14.361Z,11.10
2019-03-03T19:55:43.692Z,11.00
2019-03-03T19:58:13.152Z,11.10
2019-03-03T20:00:43.289Z,11.10
2019-03-03T20:03:17.009Z,11.00
2019-03-03T20:05:47.087Z,11.00
2019-03-03T20:08:16.469Z,11.00
2019-03-03T20:11:11.613Z,11.00
2019-03-03T20:13:41.131Z,11.10
2019-03-03T20:16:10.638Z,11.10
2019-03-03T20:18:41.321Z,11.10
2019-03-03T20:21:10.804Z,11.10
2019-03-03T20:23:40.099Z,11.10
2019-03-03T20:26:09.450Z,11.10
2019-03-03T20:28:38.845Z,11.10
2019-03-03T20:31:08.171Z,11.10
2019-03-03T20:33:39.676Z,11.10
2019-03-03T20:36:09.013Z,11.20
2019-03-03T20:38:38.419Z,11.10
2019-03-03T20:41:07.751Z,11.10
2019-03-03T20:43:37.059Z,11.10
2019-03-03T20:46:06.401Z,11.10
2019-03-03T20:48:35.857Z,11.10
2019-03-03T20:51:05.402Z,11.10
2019-03-03T20:53:34.748Z,11.10
2019-03-03T20:56:04.081Z,11.10
2019-03-03T20:58:33.408Z,11.20
2019-03-03T21:01:02.797Z,11.10
2019-03-03T21:03:32.167Z,11.30
2019-03-03T21:06:01.494Z,11.30
2019-03-03T21:08:30.883Z,11.30
2019-03-03T21:11:00.469Z,11.40
2019-03-03T21:13:29.793Z,11.40
2019-03-03T21:15:59.164Z,11.40
2019-03-03T21:18:28.497Z,11.40
2019-03-03T21:20:57.797Z,11.40
2019-03-03T21:23:27.103Z,11.50
2019-03-03T21:25:56.842Z,11.50
2019-03-03T21:28:26.179Z,11.40
2019-03-03T21:30:55.574Z,11.40
2019-03-03T21:33:24.935Z,11.40
2019-03-03T21:35:54.300Z,11.40
2019-03-03T21:38:23.695Z,11.30
2019-03-03T21:40:53.303Z,11.40
2019-03-03T21:43:22.687Z,11.40
2019-03-03T21:45:52.071Z,11.30
2019-03-03T21:48:21.388Z,11.30
2019-03-03T21:50:50.728Z,11.30
2019-03-03T21:53:20.034Z,11.40
2019-03-03T21:55:49.830Z,11.30
2019-03-03T21:58:19.112Z,11.40
2019-03-03T22:00:48.403Z,11.40
2019-03-03T22:03:17.806Z,11.40
2019-03-03T22:05:47.420Z,11.40
2019-03-03T22:08:16.748Z,11.40
2019-03-03T22:10:46.133Z,11.50
2019-03-03T22:13:15.384Z,11.40
2019-03-03T22:15:44.726Z,11.40
2019-03-03T22:18:14.030Z,11.40
2019-03-03T22:20:43.344Z,11.50
2019-03-03T22:23:12.646Z,11.40
2019-03-03T22:25:42.036Z,11.50
2019-03-03T22:28:11.479Z,11.50
2019-03-03T22:30:40.792Z,11.50
2019-03-03T22:33:10.117Z,11.40
2019-03-03T22:35:41.200Z,11.50
2019-03-03T22:38:10.479Z,11.40
2019-03-03T22:40:39.806Z,11.30
2019-03-03T22:43:09.185Z,11.30
2019-03-03T22:45:38.605Z,11.40
2019-03-03T22:48:09.205Z,11.40
2019-03-03T22:50:39.643Z,11.40
2019-03-03T22:53:08.958Z,11.30
2019-03-03T22:55:40.479Z,11.30
2019-03-03T22:58:09.938Z,11.30
2019-03-03T23:00:58.194Z,11.30
2019-03-03T23:03:34.336Z,11.20
2019-03-03T23:06:31.123Z,11.20
2019-03-03T23:09:55.064Z,11.20
2019-03-03T23:12:42.353Z,11.20
2019-03-03T23:15:40.259Z,11.10
2019-03-03T23:19:05.880Z,11.00
2019-03-03T23:21:51.782Z,10.90
2019-03-03T23:24:54.135Z,10.90
2019-03-03T23:27:42.550Z,10.80
2019-03-03T23:30:30.897Z,10.80
2019-03-03T23:33:00.226Z,10.70
2019-03-03T23:35:29.483Z,10.70
2019-03-03T23:37:58.802Z,10.70
2019-03-03T23:40:28.156Z,10.60
2019-03-03T23:42:57.975Z,10.50
2019-03-03T23:45:27.273Z,10.60
2019-03-03T23:47:56.571Z,10.50
2019-03-03T23:50:25.931Z,10.50
2019-03-03T23:52:55.236Z,10.50
2019-03-03T23:55:24.535Z,10.60
2019-03-03T23:57:54.122Z,10.60
